sensor_id;sensor_type;location;lat;lon;timestamp;P1;durP1;ratioP1;P2;durP2;ratioP2
16828;SDS011;8531;48.078;11.968;2022-12-07T00:03:36;9.83;;;7.00;;
16828;SDS011;8531;48.078;11.968;2022-12-07T00:06:03;8.67;;;6.83;;
16828;SDS011;8531;48.078;11.968;2022-12-07T00:08:31;9.73;;;7.63;;
16828;SDS011;8531;48.078;11.968;2022-12-07T00:11:08;10.00;;;7.33;;
16828;SDS011;8531;48.078;11.968;2022-12-07T00:13:36;9.57;;;6.93;;
16828;SDS011;8531;48.078;11.968;2022-12-07T00:16:03;8.70;;;6.93;;
16828;SDS011;8531;48.078;11.968;2022-12-07T00:18:34;8.57;;;6.97;;
16828;SDS011;8531;48.078;11.968;2022-12-07T00:21:05;9.00;;;6.93;;
16828;SDS011;8531;48.078;11.968;2022-12-07T00:23:35;12.73;;;8.50;;
16828;SDS011;8531;48.078;11.968;2022-12-07T00:26:04;10.77;;;7.53;;
16828;SDS011;8531;48.078;11.968;2022-12-07T00:28:31;8.67;;;7.03;;
16828;SDS011;8531;48.078;11.968;2022-12-07T00:31:02;8.40;;;6.53;;
16828;SDS011;8531;48.078;11.968;2022-12-07T00:33:29;9.10;;;7.03;;
16828;SDS011;8531;48.078;11.968;2022-12-07T00:35:56;8.13;;;6.47;;
16828;SDS011;8531;48.078;11.968;2022-12-07T00:38:22;7.17;;;5.90;;
16828;SDS011;8531;48.078;11.968;2022-12-07T00:40:58;7.63;;;5.87;;
16828;SDS011;8531;48.078;11.968;2022-12-07T00:43:25;8.53;;;7.00;;
16828;SDS011;8531;48.078;11.968;2022-12-07T00:45:51;8.47;;;6.23;;
16828;SDS011;8531;48.078;11.968;2022-12-07T00:48:17;8.43;;;6.40;;
16828;SDS011;8531;48.078;11.968;2022-12-07T00:50:43;7.80;;;6.07;;
16828;SDS011;8531;48.078;11.968;2022-12-07T00:53:08;7.20;;;6.00;;
16828;SDS011;8531;48.078;11.968;2022-12-07T00:55:34;7.63;;;5.93;;
16828;SDS011;8531;48.078;11.968;2022-12-07T00:58:00;7.97;;;5.80;;
16828;SDS011;8531;48.078;11.968;2022-12-07T01:00:26;7.93;;;6.27;;
16828;SDS011;8531;48.078;11.968;2022-12-07T01:02:52;7.03;;;5.87;;
16828;SDS011;8531;48.078;11.968;2022-12-07T01:05:18;8.13;;;6.13;;
16828;SDS011;8531;48.078;11.968;2022-12-07T01:07:44;7.73;;;6.27;;
16828;SDS011;8531;48.078;11.968;2022-12-07T01:10:11;7.97;;;6.33;;
16828;SDS011;8531;48.078;11.968;2022-12-07T01:12:38;7.60;;;6.17;;
16828;SDS011;8531;48.078;11.968;2022-12-07T01:15:04;7.70;;;6.17;;
16828;SDS011;8531;48.078;11.968;2022-12-07T01:17:30;7.70;;;5.43;;
16828;SDS011;8531;48.078;11.968;2022-12-07T01:19:56;7.60;;;6.07;;
16828;SDS011;8531;48.078;11.968;2022-12-07T01:22:21;8.90;;;6.63;;
16828;SDS011;8531;48.078;11.968;2022-12-07T01:24:47;8.53;;;6.63;;
16828;SDS011;8531;48.078;11.968;2022-12-07T01:27:13;11.23;;;6.87;;
16828;SDS011;8531;48.078;11.968;2022-12-07T01:29:39;9.00;;;7.00;;
16828;SDS011;8531;48.078;11.968;2022-12-07T01:32:05;8.73;;;6.70;;
16828;SDS011;8531;48.078;11.968;2022-12-07T01:34:31;8.97;;;7.03;;
16828;SDS011;8531;48.078;11.968;2022-12-07T01:36:56;6.57;;;5.73;;
16828;SDS011;8531;48.078;11.968;2022-12-07T01:39:22;7.10;;;5.93;;
16828;SDS011;8531;48.078;11.968;2022-12-07T01:41:48;8.07;;;6.03;;
16828;SDS011;8531;48.078;11.968;2022-12-07T01:46:54;8.67;;;6.50;;
16828;SDS011;8531;48.078;11.968;2022-12-07T01:49:31;7.07;;;5.83;;
16828;SDS011;8531;48.078;11.968;2022-12-07T01:52:07;7.17;;;5.93;;
16828;SDS011;8531;48.078;11.968;2022-12-07T01:54:57;8.83;;;6.60;;
16828;SDS011;8531;48.078;11.968;2022-12-07T01:57:28;9.13;;;7.27;;
16828;SDS011;8531;48.078;11.968;2022-12-07T01:59:57;8.63;;;6.70;;
16828;SDS011;8531;48.078;11.968;2022-12-07T02:02:27;8.97;;;6.53;;
16828;SDS011;8531;48.078;11.968;2022-12-07T02:05:03;8.40;;;5.90;;
16828;SDS011;8531;48.078;11.968;2022-12-07T02:07:29;7.80;;;6.40;;
16828;SDS011;8531;48.078;11.968;2022-12-07T02:09:57;8.27;;;6.13;;
16828;SDS011;8531;48.078;11.968;2022-12-07T02:12:36;7.77;;;6.30;;
16828;SDS011;8531;48.078;11.968;2022-12-07T02:15:01;8.43;;;6.60;;
16828;SDS011;8531;48.078;11.968;2022-12-07T02:17:48;9.97;;;6.43;;
16828;SDS011;8531;48.078;11.968;2022-12-07T02:20:33;8.23;;;6.63;;
16828;SDS011;8531;48.078;11.968;2022-12-07T02:31:33;8.70;;;6.30;;
16828;SDS011;8531;48.078;11.968;2022-12-07T02:34:07;8.67;;;6.17;;
16828;SDS011;8531;48.078;11.968;2022-12-07T02:36:39;9.17;;;6.73;;
16828;SDS011;8531;48.078;11.968;2022-12-07T02:39:17;7.90;;;6.17;;
16828;SDS011;8531;48.078;11.968;2022-12-07T02:41:53;7.13;;;5.90;;
16828;SDS011;8531;48.078;11.968;2022-12-07T02:44:27;6.53;;;5.80;;
16828;SDS011;8531;48.078;11.968;2022-12-07T02:47:00;9.30;;;6.73;;
16828;SDS011;8531;48.078;11.968;2022-12-07T02:49:30;7.40;;;6.20;;
16828;SDS011;8531;48.078;11.968;2022-12-07T02:51:56;9.03;;;7.37;;
16828;SDS011;8531;48.078;11.968;2022-12-07T02:54:22;8.47;;;7.17;;
16828;SDS011;8531;48.078;11.968;2022-12-07T03:08:16;6.67;;;5.37;;
16828;SDS011;8531;48.078;11.968;2022-12-07T03:10:56;7.03;;;6.33;;
16828;SDS011;8531;48.078;11.968;2022-12-07T03:18:28;8.73;;;6.17;;
16828;SDS011;8531;48.078;11.968;2022-12-07T03:20:57;8.57;;;6.93;;
16828;SDS011;8531;48.078;11.968;2022-12-07T03:23:29;8.20;;;6.93;;
16828;SDS011;8531;48.078;11.968;2022-12-07T03:26:00;8.03;;;6.33;;
16828;SDS011;8531;48.078;11.968;2022-12-07T03:28:29;7.67;;;6.63;;
16828;SDS011;8531;48.078;11.968;2022-12-07T03:31:43;7.73;;;6.73;;
16828;SDS011;8531;48.078;11.968;2022-12-07T03:33:53;7.50;;;6.03;;
16828;SDS011;8531;48.078;11.968;2022-12-07T03:36:50;10.17;;;6.97;;
16828;SDS011;8531;48.078;11.968;2022-12-07T03:39:33;8.80;;;6.40;;
16828;SDS011;8531;48.078;11.968;2022-12-07T03:42:08;7.73;;;6.10;;
16828;SDS011;8531;48.078;11.968;2022-12-07T03:44:36;8.73;;;6.43;;
16828;SDS011;8531;48.078;11.968;2022-12-07T03:47:07;9.70;;;7.43;;
16828;SDS011;8531;48.078;11.968;2022-12-07T03:49:53;8.30;;;7.17;;
16828;SDS011;8531;48.078;11.968;2022-12-07T03:52:25;8.77;;;6.60;;
16828;SDS011;8531;48.078;11.968;2022-12-07T03:55:06;8.67;;;6.60;;
16828;SDS011;8531;48.078;11.968;2022-12-07T03:57:43;7.80;;;6.63;;
16828;SDS011;8531;48.078;11.968;2022-12-07T04:00:11;8.93;;;7.27;;
16828;SDS011;8531;48.078;11.968;2022-12-07T04:02:38;8.73;;;6.73;;
16828;SDS011;8531;48.078;11.968;2022-12-07T04:05:04;8.27;;;6.60;;
16828;SDS011;8531;48.078;11.968;2022-12-07T04:07:31;8.67;;;6.53;;
16828;SDS011;8531;48.078;11.968;2022-12-07T04:09:57;8.50;;;6.10;;
16828;SDS011;8531;48.078;11.968;2022-12-07T04:12:22;8.27;;;6.33;;
16828;SDS011;8531;48.078;11.968;2022-12-07T04:14:48;8.53;;;6.73;;
16828;SDS011;8531;48.078;11.968;2022-12-07T04:17:14;8.07;;;6.50;;
16828;SDS011;8531;48.078;11.968;2022-12-07T04:19:40;7.87;;;6.70;;
16828;SDS011;8531;48.078;11.968;2022-12-07T04:22:06;8.17;;;6.47;;
16828;SDS011;8531;48.078;11.968;2022-12-07T04:24:32;8.90;;;6.60;;
16828;SDS011;8531;48.078;11.968;2022-12-07T04:26:58;9.23;;;7.37;;
16828;SDS011;8531;48.078;11.968;2022-12-07T04:29:24;8.40;;;7.37;;
16828;SDS011;8531;48.078;11.968;2022-12-07T04:31:50;7.93;;;6.97;;
16828;SDS011;8531;48.078;11.968;2022-12-07T04:34:17;8.80;;;7.10;;
16828;SDS011;8531;48.078;11.968;2022-12-07T04:36:44;9.97;;;7.70;;
16828;SDS011;8531;48.078;11.968;2022-12-07T04:39:17;8.97;;;7.23;;
16828;SDS011;8531;48.078;11.968;2022-12-07T04:41:56;8.90;;;7.00;;
16828;SDS011;8531;48.078;11.968;2022-12-07T04:44:22;10.00;;;7.80;;
16828;SDS011;8531;48.078;11.968;2022-12-07T04:46:49;8.43;;;7.13;;
16828;SDS011;8531;48.078;11.968;2022-12-07T04:49:15;9.77;;;7.40;;
16828;SDS011;8531;48.078;11.968;2022-12-07T04:51:43;9.00;;;7.30;;
16828;SDS011;8531;48.078;11.968;2022-12-07T04:54:09;9.63;;;7.23;;
16828;SDS011;8531;48.078;11.968;2022-12-07T04:56:35;9.33;;;7.83;;
16828;SDS011;8531;48.078;11.968;2022-12-07T04:59:01;10.40;;;8.07;;
16828;SDS011;8531;48.078;11.968;2022-12-07T05:01:27;8.73;;;7.43;;
16828;SDS011;8531;48.078;11.968;2022-12-07T05:03:53;9.10;;;7.33;;
16828;SDS011;8531;48.078;11.968;2022-12-07T05:06:19;10.53;;;8.30;;
16828;SDS011;8531;48.078;11.968;2022-12-07T05:08:45;9.53;;;7.50;;
16828;SDS011;8531;48.078;11.968;2022-12-07T05:11:11;9.37;;;7.73;;
16828;SDS011;8531;48.078;11.968;2022-12-07T05:13:58;9.93;;;7.73;;
16828;SDS011;8531;48.078;11.968;2022-12-07T05:16:24;9.63;;;7.77;;
16828;SDS011;8531;48.078;11.968;2022-12-07T05:18:49;9.40;;;7.97;;
16828;SDS011;8531;48.078;11.968;2022-12-07T05:21:15;10.00;;;8.53;;
16828;SDS011;8531;48.078;11.968;2022-12-07T05:23:41;10.17;;;7.93;;
16828;SDS011;8531;48.078;11.968;2022-12-07T05:26:06;9.83;;;8.20;;
16828;SDS011;8531;48.078;11.968;2022-12-07T05:28:32;9.87;;;8.20;;
16828;SDS011;8531;48.078;11.968;2022-12-07T05:30:58;9.67;;;8.10;;
16828;SDS011;8531;48.078;11.968;2022-12-07T05:33:23;8.27;;;7.37;;
16828;SDS011;8531;48.078;11.968;2022-12-07T05:35:49;11.17;;;7.80;;
16828;SDS011;8531;48.078;11.968;2022-12-07T05:38:14;11.03;;;8.20;;
16828;SDS011;8531;48.078;11.968;2022-12-07T05:40:40;10.10;;;8.27;;
16828;SDS011;8531;48.078;11.968;2022-12-07T05:43:06;11.27;;;8.27;;
16828;SDS011;8531;48.078;11.968;2022-12-07T05:45:32;11.10;;;9.53;;
16828;SDS011;8531;48.078;11.968;2022-12-07T05:47:57;10.83;;;7.93;;
16828;SDS011;8531;48.078;11.968;2022-12-07T05:50:23;10.53;;;8.20;;
16828;SDS011;8531;48.078;11.968;2022-12-07T05:52:49;10.87;;;8.70;;
16828;SDS011;8531;48.078;11.968;2022-12-07T05:55:15;11.30;;;8.83;;
16828;SDS011;8531;48.078;11.968;2022-12-07T05:57:40;9.80;;;8.27;;
16828;SDS011;8531;48.078;11.968;2022-12-07T06:00:26;9.90;;;8.40;;
16828;SDS011;8531;48.078;11.968;2022-12-07T06:02:52;9.97;;;8.10;;
16828;SDS011;8531;48.078;11.968;2022-12-07T06:05:17;9.50;;;7.90;;
16828;SDS011;8531;48.078;11.968;2022-12-07T06:07:43;10.90;;;7.80;;
16828;SDS011;8531;48.078;11.968;2022-12-07T06:10:09;9.43;;;8.10;;
16828;SDS011;8531;48.078;11.968;2022-12-07T06:12:35;15.10;;;8.30;;
16828;SDS011;8531;48.078;11.968;2022-12-07T06:15:03;12.23;;;9.77;;
16828;SDS011;8531;48.078;11.968;2022-12-07T06:17:29;12.03;;;9.57;;
16828;SDS011;8531;48.078;11.968;2022-12-07T06:19:54;12.40;;;9.50;;
16828;SDS011;8531;48.078;11.968;2022-12-07T06:22:20;13.20;;;9.40;;
16828;SDS011;8531;48.078;11.968;2022-12-07T06:24:46;11.90;;;9.83;;
16828;SDS011;8531;48.078;11.968;2022-12-07T06:27:12;9.23;;;7.53;;
16828;SDS011;8531;48.078;11.968;2022-12-07T06:29:37;10.13;;;8.23;;
16828;SDS011;8531;48.078;11.968;2022-12-07T06:32:03;13.07;;;9.07;;
16828;SDS011;8531;48.078;11.968;2022-12-07T06:34:29;11.60;;;9.00;;
16828;SDS011;8531;48.078;11.968;2022-12-07T06:36:55;11.60;;;8.77;;
16828;SDS011;8531;48.078;11.968;2022-12-07T06:39:22;11.10;;;8.30;;
16828;SDS011;8531;48.078;11.968;2022-12-07T06:41:49;9.57;;;7.50;;
16828;SDS011;8531;48.078;11.968;2022-12-07T06:44:17;11.47;;;8.93;;
16828;SDS011;8531;48.078;11.968;2022-12-07T06:46:43;10.17;;;8.23;;
16828;SDS011;8531;48.078;11.968;2022-12-07T06:49:09;12.57;;;8.77;;
16828;SDS011;8531;48.078;11.968;2022-12-07T06:51:35;12.23;;;8.77;;
16828;SDS011;8531;48.078;11.968;2022-12-07T06:54:02;11.00;;;8.53;;
16828;SDS011;8531;48.078;11.968;2022-12-07T06:56:28;11.33;;;9.13;;
16828;SDS011;8531;48.078;11.968;2022-12-07T06:58:54;13.43;;;9.23;;
16828;SDS011;8531;48.078;11.968;2022-12-07T07:01:20;10.57;;;8.90;;
16828;SDS011;8531;48.078;11.968;2022-12-07T07:03:46;11.10;;;8.83;;
16828;SDS011;8531;48.078;11.968;2022-12-07T07:06:12;13.03;;;9.67;;
16828;SDS011;8531;48.078;11.968;2022-12-07T07:08:38;12.20;;;9.50;;
16828;SDS011;8531;48.078;11.968;2022-12-07T07:11:05;12.30;;;9.77;;
16828;SDS011;8531;48.078;11.968;2022-12-07T07:13:31;11.17;;;8.93;;
16828;SDS011;8531;48.078;11.968;2022-12-07T07:15:57;12.40;;;9.70;;
16828;SDS011;8531;48.078;11.968;2022-12-07T07:18:23;12.97;;;9.93;;
16828;SDS011;8531;48.078;11.968;2022-12-07T07:20:49;12.43;;;9.13;;
16828;SDS011;8531;48.078;11.968;2022-12-07T07:23:16;14.10;;;10.97;;
16828;SDS011;8531;48.078;11.968;2022-12-07T07:25:41;11.23;;;9.07;;
16828;SDS011;8531;48.078;11.968;2022-12-07T07:28:07;11.50;;;9.60;;
16828;SDS011;8531;48.078;11.968;2022-12-07T07:30:33;13.03;;;9.57;;
16828;SDS011;8531;48.078;11.968;2022-12-07T07:33:00;11.80;;;9.27;;
16828;SDS011;8531;48.078;11.968;2022-12-07T07:35:27;11.50;;;9.23;;
16828;SDS011;8531;48.078;11.968;2022-12-07T07:37:54;11.63;;;9.57;;
16828;SDS011;8531;48.078;11.968;2022-12-07T07:40:22;12.00;;;8.97;;
16828;SDS011;8531;48.078;11.968;2022-12-07T07:42:52;11.23;;;8.70;;
16828;SDS011;8531;48.078;11.968;2022-12-07T07:45:19;11.87;;;9.33;;
16828;SDS011;8531;48.078;11.968;2022-12-07T07:47:46;10.37;;;8.83;;
16828;SDS011;8531;48.078;11.968;2022-12-07T07:50:12;11.53;;;9.07;;
16828;SDS011;8531;48.078;11.968;2022-12-07T07:52:38;13.30;;;9.57;;
16828;SDS011;8531;48.078;11.968;2022-12-07T07:55:04;11.67;;;9.27;;
16828;SDS011;8531;48.078;11.968;2022-12-07T07:57:31;10.50;;;8.70;;
16828;SDS011;8531;48.078;11.968;2022-12-07T07:59:56;13.30;;;9.70;;
16828;SDS011;8531;48.078;11.968;2022-12-07T08:02:22;10.57;;;8.73;;
16828;SDS011;8531;48.078;11.968;2022-12-07T08:04:48;11.53;;;8.83;;
16828;SDS011;8531;48.078;11.968;2022-12-07T08:07:14;11.13;;;9.17;;
16828;SDS011;8531;48.078;11.968;2022-12-07T08:09:40;12.17;;;9.37;;
16828;SDS011;8531;48.078;11.968;2022-12-07T08:12:06;11.20;;;8.40;;
16828;SDS011;8531;48.078;11.968;2022-12-07T08:14:32;10.97;;;9.00;;
16828;SDS011;8531;48.078;11.968;2022-12-07T08:16:59;9.47;;;8.17;;
16828;SDS011;8531;48.078;11.968;2022-12-07T08:19:24;9.53;;;7.63;;
16828;SDS011;8531;48.078;11.968;2022-12-07T08:21:50;10.87;;;8.10;;
16828;SDS011;8531;48.078;11.968;2022-12-07T08:24:16;10.80;;;9.00;;
16828;SDS011;8531;48.078;11.968;2022-12-07T08:26:42;11.63;;;8.50;;
16828;SDS011;8531;48.078;11.968;2022-12-07T08:29:08;11.80;;;9.90;;
16828;SDS011;8531;48.078;11.968;2022-12-07T08:31:34;11.17;;;8.90;;
16828;SDS011;8531;48.078;11.968;2022-12-07T08:34:00;11.20;;;8.57;;
16828;SDS011;8531;48.078;11.968;2022-12-07T08:36:26;10.57;;;8.90;;
16828;SDS011;8531;48.078;11.968;2022-12-07T08:38:51;11.03;;;9.07;;
16828;SDS011;8531;48.078;11.968;2022-12-07T08:41:17;11.07;;;8.50;;
16828;SDS011;8531;48.078;11.968;2022-12-07T08:43:43;10.47;;;8.67;;
16828;SDS011;8531;48.078;11.968;2022-12-07T08:46:11;11.27;;;8.77;;
16828;SDS011;8531;48.078;11.968;2022-12-07T08:48:45;10.33;;;8.70;;
16828;SDS011;8531;48.078;11.968;2022-12-07T08:51:18;11.10;;;8.67;;
16828;SDS011;8531;48.078;11.968;2022-12-07T08:53:44;11.93;;;9.13;;
16828;SDS011;8531;48.078;11.968;2022-12-07T08:56:10;10.43;;;8.67;;
16828;SDS011;8531;48.078;11.968;2022-12-07T08:58:37;9.80;;;8.80;;
16828;SDS011;8531;48.078;11.968;2022-12-07T09:01:04;12.03;;;8.57;;
16828;SDS011;8531;48.078;11.968;2022-12-07T09:03:30;10.37;;;7.67;;
16828;SDS011;8531;48.078;11.968;2022-12-07T09:05:57;13.00;;;7.57;;
16828;SDS011;8531;48.078;11.968;2022-12-07T09:08:23;10.90;;;7.97;;
16828;SDS011;8531;48.078;11.968;2022-12-07T09:10:54;11.17;;;8.40;;
16828;SDS011;8531;48.078;11.968;2022-12-07T09:13:20;9.37;;;7.50;;
16828;SDS011;8531;48.078;11.968;2022-12-07T09:15:46;9.60;;;7.80;;
16828;SDS011;8531;48.078;11.968;2022-12-07T09:18:11;10.80;;;9.20;;
16828;SDS011;8531;48.078;11.968;2022-12-07T09:20:37;9.07;;;7.83;;
16828;SDS011;8531;48.078;11.968;2022-12-07T09:23:05;7.43;;;6.10;;
16828;SDS011;8531;48.078;11.968;2022-12-07T09:25:32;8.53;;;7.17;;
16828;SDS011;8531;48.078;11.968;2022-12-07T09:27:58;8.60;;;6.57;;
16828;SDS011;8531;48.078;11.968;2022-12-07T09:30:24;8.20;;;6.70;;
16828;SDS011;8531;48.078;11.968;2022-12-07T09:32:52;7.90;;;6.60;;
16828;SDS011;8531;48.078;11.968;2022-12-07T09:35:19;6.90;;;6.00;;
16828;SDS011;8531;48.078;11.968;2022-12-07T09:37:45;9.27;;;6.77;;
16828;SDS011;8531;48.078;11.968;2022-12-07T09:40:11;6.90;;;6.00;;
16828;SDS011;8531;48.078;11.968;2022-12-07T09:42:39;7.30;;;6.10;;
16828;SDS011;8531;48.078;11.968;2022-12-07T09:45:17;7.13;;;5.80;;
16828;SDS011;8531;48.078;11.968;2022-12-07T09:47:48;7.87;;;6.13;;
16828;SDS011;8531;48.078;11.968;2022-12-07T09:50:15;7.10;;;6.40;;
16828;SDS011;8531;48.078;11.968;2022-12-07T09:52:47;7.93;;;5.77;;
16828;SDS011;8531;48.078;11.968;2022-12-07T09:55:15;6.00;;;5.07;;
16828;SDS011;8531;48.078;11.968;2022-12-07T09:57:52;6.80;;;5.90;;
16828;SDS011;8531;48.078;11.968;2022-12-07T10:00:20;8.00;;;5.87;;
16828;SDS011;8531;48.078;11.968;2022-12-07T10:02:57;6.27;;;5.60;;
16828;SDS011;8531;48.078;11.968;2022-12-07T10:05:25;8.33;;;5.97;;
16828;SDS011;8531;48.078;11.968;2022-12-07T10:08:02;7.10;;;6.03;;
16828;SDS011;8531;48.078;11.968;2022-12-07T10:10:32;6.87;;;5.87;;
16828;SDS011;8531;48.078;11.968;2022-12-07T10:13:01;6.37;;;5.43;;
16828;SDS011;8531;48.078;11.968;2022-12-07T10:15:44;6.63;;;5.60;;
16828;SDS011;8531;48.078;11.968;2022-12-07T10:18:18;10.20;;;6.23;;
16828;SDS011;8531;48.078;11.968;2022-12-07T10:20:50;5.50;;;4.80;;
16828;SDS011;8531;48.078;11.968;2022-12-07T10:23:26;6.20;;;5.20;;
16828;SDS011;8531;48.078;11.968;2022-12-07T10:25:51;5.73;;;4.90;;
16828;SDS011;8531;48.078;11.968;2022-12-07T10:28:20;6.03;;;5.43;;
16828;SDS011;8531;48.078;11.968;2022-12-07T10:33:32;6.30;;;5.38;;
16828;SDS011;8531;48.078;11.968;2022-12-07T10:38:49;7.80;;;6.07;;
16828;SDS011;8531;48.078;11.968;2022-12-07T10:41:17;5.70;;;5.00;;
16828;SDS011;8531;48.078;11.968;2022-12-07T10:43:47;6.45;;;5.03;;
16828;SDS011;8531;48.078;11.968;2022-12-07T10:52:00;7.00;;;6.10;;
16828;SDS011;8531;48.078;11.968;2022-12-07T10:55:33;6.93;;;5.40;;
16828;SDS011;8531;48.078;11.968;2022-12-07T11:09:47;6.25;;;5.00;;
16828;SDS011;8531;48.078;11.968;2022-12-07T11:15:18;5.93;;;4.97;;
16828;SDS011;8531;48.078;11.968;2022-12-07T11:18:02;6.03;;;5.30;;
16828;SDS011;8531;48.078;11.968;2022-12-07T11:33:47;5.38;;;4.70;;
16828;SDS011;8531;48.078;11.968;2022-12-07T11:36:52;8.07;;;5.57;;
16828;SDS011;8531;48.078;11.968;2022-12-07T11:39:30;17.77;;;6.33;;
16828;SDS011;8531;48.078;11.968;2022-12-07T11:42:01;8.65;;;6.32;;
16828;SDS011;8531;48.078;11.968;2022-12-07T11:44:33;10.68;;;7.00;;
16828;SDS011;8531;48.078;11.968;2022-12-07T12:03:47;7.22;;;5.88;;
16828;SDS011;8531;48.078;11.968;2022-12-07T12:06:16;9.60;;;5.22;;
16828;SDS011;8531;48.078;11.968;2022-12-07T12:08:43;7.82;;;5.45;;
16828;SDS011;8531;48.078;11.968;2022-12-07T12:17:04;8.02;;;5.45;;
16828;SDS011;8531;48.078;11.968;2022-12-07T12:22:45;7.00;;;5.25;;
16828;SDS011;8531;48.078;11.968;2022-12-07T12:25:23;6.75;;;5.40;;
16828;SDS011;8531;48.078;11.968;2022-12-07T12:27:52;6.90;;;4.97;;
16828;SDS011;8531;48.078;11.968;2022-12-07T12:30:37;8.25;;;5.28;;
16828;SDS011;8531;48.078;11.968;2022-12-07T12:33:26;9.88;;;5.45;;
16828;SDS011;8531;48.078;11.968;2022-12-07T12:39:08;24.25;;;7.45;;
16828;SDS011;8531;48.078;11.968;2022-12-07T12:46:46;5.40;;;4.90;;
16828;SDS011;8531;48.078;11.968;2022-12-07T12:51:56;6.63;;;5.68;;
16828;SDS011;8531;48.078;11.968;2022-12-07T12:54:38;10.68;;;6.30;;
16828;SDS011;8531;48.078;11.968;2022-12-07T13:10:20;6.35;;;5.20;;
16828;SDS011;8531;48.078;11.968;2022-12-07T13:18:34;7.18;;;5.30;;
16828;SDS011;8531;48.078;11.968;2022-12-07T13:28:35;7.30;;;5.07;;
16828;SDS011;8531;48.078;11.968;2022-12-07T13:31:12;6.95;;;5.78;;
16828;SDS011;8531;48.078;11.968;2022-12-07T13:33:48;5.38;;;4.88;;
16828;SDS011;8531;48.078;11.968;2022-12-07T13:36:20;12.50;;;4.93;;
16828;SDS011;8531;48.078;11.968;2022-12-07T13:38:55;7.63;;;5.13;;
16828;SDS011;8531;48.078;11.968;2022-12-07T13:41:27;5.80;;;5.22;;
16828;SDS011;8531;48.078;11.968;2022-12-07T13:44:05;6.53;;;5.50;;
16828;SDS011;8531;48.078;11.968;2022-12-07T13:49:47;9.93;;;5.25;;
16828;SDS011;8531;48.078;11.968;2022-12-07T13:52:17;6.97;;;5.75;;
16828;SDS011;8531;48.078;11.968;2022-12-07T13:54:48;6.82;;;5.75;;
16828;SDS011;8531;48.078;11.968;2022-12-07T13:57:20;6.50;;;5.40;;
16828;SDS011;8531;48.078;11.968;2022-12-07T13:59:49;5.97;;;4.88;;
16828;SDS011;8531;48.078;11.968;2022-12-07T14:02:22;8.65;;;5.47;;
16828;SDS011;8531;48.078;11.968;2022-12-07T14:04:51;6.60;;;5.82;;
16828;SDS011;8531;48.078;11.968;2022-12-07T14:07:30;7.55;;;6.00;;
16828;SDS011;8531;48.078;11.968;2022-12-07T14:10:05;7.95;;;5.47;;
16828;SDS011;8531;48.078;11.968;2022-12-07T14:12:47;11.00;;;6.40;;
16828;SDS011;8531;48.078;11.968;2022-12-07T14:15:19;15.27;;;7.10;;
16828;SDS011;8531;48.078;11.968;2022-12-07T14:17:53;8.57;;;6.90;;
16828;SDS011;8531;48.078;11.968;2022-12-07T14:22:56;9.63;;;6.53;;
16828;SDS011;8531;48.078;11.968;2022-12-07T14:25:23;7.35;;;5.70;;
16828;SDS011;8531;48.078;11.968;2022-12-07T14:27:54;8.13;;;5.90;;
16828;SDS011;8531;48.078;11.968;2022-12-07T14:30:24;12.50;;;6.20;;
16828;SDS011;8531;48.078;11.968;2022-12-07T14:32:56;7.60;;;6.03;;
16828;SDS011;8531;48.078;11.968;2022-12-07T14:35:26;8.23;;;6.80;;
16828;SDS011;8531;48.078;11.968;2022-12-07T14:37:52;8.30;;;6.30;;
16828;SDS011;8531;48.078;11.968;2022-12-07T14:42:46;8.93;;;6.97;;
16828;SDS011;8531;48.078;11.968;2022-12-07T14:45:18;12.07;;;7.60;;
16828;SDS011;8531;48.078;11.968;2022-12-07T14:47:46;8.55;;;6.40;;
16828;SDS011;8531;48.078;11.968;2022-12-07T14:50:16;10.68;;;6.45;;
16828;SDS011;8531;48.078;11.968;2022-12-07T14:52:43;10.68;;;6.65;;
16828;SDS011;8531;48.078;11.968;2022-12-07T14:57:49;8.70;;;6.88;;
16828;SDS011;8531;48.078;11.968;2022-12-07T15:00:15;9.75;;;7.38;;
16828;SDS011;8531;48.078;11.968;2022-12-07T15:02:42;9.70;;;6.47;;
16828;SDS011;8531;48.078;11.968;2022-12-07T15:05:09;8.23;;;5.68;;
16828;SDS011;8531;48.078;11.968;2022-12-07T15:07:35;6.97;;;6.10;;
16828;SDS011;8531;48.078;11.968;2022-12-07T15:10:01;9.77;;;7.07;;
16828;SDS011;8531;48.078;11.968;2022-12-07T15:12:27;8.55;;;6.65;;
16828;SDS011;8531;48.078;11.968;2022-12-07T15:14:53;11.18;;;6.43;;
16828;SDS011;8531;48.078;11.968;2022-12-07T15:17:19;8.57;;;7.05;;
16828;SDS011;8531;48.078;11.968;2022-12-07T15:19:44;7.75;;;6.15;;
16828;SDS011;8531;48.078;11.968;2022-12-07T15:22:10;9.55;;;7.22;;
16828;SDS011;8531;48.078;11.968;2022-12-07T15:24:36;9.82;;;6.65;;
16828;SDS011;8531;48.078;11.968;2022-12-07T15:27:02;9.85;;;7.30;;
16828;SDS011;8531;48.078;11.968;2022-12-07T15:29:28;9.07;;;7.38;;
16828;SDS011;8531;48.078;11.968;2022-12-07T15:31:54;8.65;;;7.20;;
16828;SDS011;8531;48.078;11.968;2022-12-07T15:34:20;9.95;;;7.28;;
16828;SDS011;8531;48.078;11.968;2022-12-07T15:36:47;10.25;;;8.05;;
16828;SDS011;8531;48.078;11.968;2022-12-07T15:39:13;9.05;;;6.95;;
16828;SDS011;8531;48.078;11.968;2022-12-07T15:41:39;9.30;;;7.68;;
16828;SDS011;8531;48.078;11.968;2022-12-07T15:44:04;8.80;;;7.07;;
16828;SDS011;8531;48.078;11.968;2022-12-07T15:46:56;14.40;;;8.05;;
16828;SDS011;8531;48.078;11.968;2022-12-07T15:49:22;9.70;;;8.35;;
16828;SDS011;8531;48.078;11.968;2022-12-07T15:51:48;9.68;;;7.95;;
16828;SDS011;8531;48.078;11.968;2022-12-07T15:54:16;10.27;;;8.40;;
16828;SDS011;8531;48.078;11.968;2022-12-07T15:56:48;14.80;;;11.77;;
16828;SDS011;8531;48.078;11.968;2022-12-07T15:59:13;14.50;;;10.93;;
16828;SDS011;8531;48.078;11.968;2022-12-07T16:01:40;14.63;;;11.52;;
16828;SDS011;8531;48.078;11.968;2022-12-07T16:04:05;15.52;;;11.35;;
16828;SDS011;8531;48.078;11.968;2022-12-07T16:06:31;12.15;;;9.18;;
16828;SDS011;8531;48.078;11.968;2022-12-07T16:08:57;12.83;;;10.43;;
16828;SDS011;8531;48.078;11.968;2022-12-07T16:11:23;11.07;;;9.70;;
16828;SDS011;8531;48.078;11.968;2022-12-07T16:13:48;13.20;;;10.95;;
16828;SDS011;8531;48.078;11.968;2022-12-07T16:16:15;12.27;;;10.02;;
16828;SDS011;8531;48.078;11.968;2022-12-07T16:18:43;12.03;;;9.90;;
16828;SDS011;8531;48.078;11.968;2022-12-07T16:21:10;11.73;;;9.30;;
16828;SDS011;8531;48.078;11.968;2022-12-07T16:23:36;19.63;;;12.32;;
16828;SDS011;8531;48.078;11.968;2022-12-07T16:26:18;18.27;;;11.87;;
16828;SDS011;8531;48.078;11.968;2022-12-07T16:28:48;14.93;;;10.37;;
16828;SDS011;8531;48.078;11.968;2022-12-07T16:31:15;15.30;;;11.17;;
16828;SDS011;8531;48.078;11.968;2022-12-07T16:33:43;21.27;;;14.23;;
16828;SDS011;8531;48.078;11.968;2022-12-07T16:36:10;22.60;;;16.20;;
16828;SDS011;8531;48.078;11.968;2022-12-07T16:38:43;23.30;;;15.73;;
16828;SDS011;8531;48.078;11.968;2022-12-07T16:41:09;20.77;;;15.80;;
16828;SDS011;8531;48.078;11.968;2022-12-07T16:43:36;18.77;;;15.10;;
16828;SDS011;8531;48.078;11.968;2022-12-07T16:46:02;18.07;;;14.00;;
16828;SDS011;8531;48.078;11.968;2022-12-07T16:48:28;18.93;;;13.87;;
16828;SDS011;8531;48.078;11.968;2022-12-07T16:50:54;17.60;;;13.77;;
16828;SDS011;8531;48.078;11.968;2022-12-07T16:53:20;17.77;;;13.53;;
16828;SDS011;8531;48.078;11.968;2022-12-07T16:55:47;17.60;;;13.70;;
16828;SDS011;8531;48.078;11.968;2022-12-07T16:58:13;14.60;;;12.33;;
16828;SDS011;8531;48.078;11.968;2022-12-07T17:00:40;14.90;;;11.53;;
16828;SDS011;8531;48.078;11.968;2022-12-07T17:03:08;16.57;;;13.30;;
16828;SDS011;8531;48.078;11.968;2022-12-07T17:05:41;15.70;;;12.13;;
16828;SDS011;8531;48.078;11.968;2022-12-07T17:08:08;14.47;;;10.87;;
16828;SDS011;8531;48.078;11.968;2022-12-07T17:10:34;11.47;;;8.93;;
16828;SDS011;8531;48.078;11.968;2022-12-07T17:13:02;13.00;;;10.23;;
16828;SDS011;8531;48.078;11.968;2022-12-07T17:15:56;15.33;;;13.33;;